createdAt,value
2022-12-12T00:00:27.436Z,1004.03
2022-12-12T00:01:22.464Z,1004.03
2022-12-12T00:02:21.660Z,1004.02
2022-12-12T00:03:21.590Z,1004.06
2022-12-12T00:04:21.397Z,1004.06
2022-12-12T00:05:21.381Z,1004.00
2022-12-12T00:06:21.387Z,1004.05
2022-12-12T00:07:21.366Z,1004.02
2022-12-12T00:08:21.381Z,1004.01
2022-12-12T00:09:21.341Z,1003.96
2022-12-12T00:10:21.342Z,1003.92
2022-12-12T00:11:21.335Z,1003.89
2022-12-12T00:12:21.310Z,1003.81
2022-12-12T00:13:21.317Z,1003.73
2022-12-12T00:14:21.289Z,1003.69
2022-12-12T00:15:21.281Z,1003.57
2022-12-12T00:16:21.464Z,1003.55
2022-12-12T00:17:21.280Z,1003.48
2022-12-12T00:18:21.252Z,1003.46
2022-12-12T00:19:21.239Z,1003.44
2022-12-12T00:20:21.225Z,1003.47
2022-12-12T00:21:21.232Z,1003.48
2022-12-12T00:22:21.204Z,1003.57
2022-12-12T00:23:21.195Z,1003.62
2022-12-12T00:24:21.184Z,1003.67
2022-12-12T00:25:21.179Z,1003.71
2022-12-12T00:26:21.170Z,1003.72
2022-12-12T00:27:21.150Z,1003.80
2022-12-12T00:28:21.139Z,1003.86
2022-12-12T00:29:21.131Z,1003.86
2022-12-12T00:30:21.121Z,1003.84
2022-12-12T00:31:21.164Z,1003.86
2022-12-12T00:32:21.100Z,1003.83
2022-12-12T00:33:21.109Z,1003.80
2022-12-12T00:34:21.078Z,1003.82
2022-12-12T00:35:21.067Z,1003.85
2022-12-12T00:36:21.069Z,1003.87
2022-12-12T00:37:21.045Z,1003.83
2022-12-12T00:38:21.033Z,1003.76
2022-12-12T00:39:21.026Z,1003.77
2022-12-12T00:40:21.012Z,1003.72
2022-12-12T00:41:21.016Z,1003.69
2022-12-12T00:42:20.993Z,1003.74
2022-12-12T00:43:20.984Z,1003.71
2022-12-12T00:44:20.969Z,1003.70
2022-12-12T00:45:20.960Z,1003.71
2022-12-12T00:46:21.059Z,1003.73
2022-12-12T00:47:20.939Z,1003.69
2022-12-12T00:48:20.927Z,1003.66
2022-12-12T00:49:20.944Z,1003.72
2022-12-12T00:50:20.907Z,1003.76
2022-12-12T00:51:20.978Z,1003.74
2022-12-12T00:52:20.885Z,1003.73
2022-12-12T00:53:20.879Z,1003.77
2022-12-12T00:54:20.865Z,1003.80
2022-12-12T00:55:20.857Z,1003.81
2022-12-12T00:56:20.854Z,1003.85
2022-12-12T00:57:20.845Z,1003.80
2022-12-12T00:58:20.822Z,1003.74
2022-12-12T00:59:20.813Z,1003.82
2022-12-12T01:00:20.802Z,1003.74
2022-12-12T01:01:20.848Z,1003.78
2022-12-12T01:02:26.402Z,1003.82
2022-12-12T01:03:21.816Z,1003.87
2022-12-12T01:04:20.759Z,1003.88
2022-12-12T01:05:20.772Z,1003.85
2022-12-12T01:06:20.750Z,1003.87
2022-12-12T01:07:20.729Z,1003.88
2022-12-12T01:08:20.772Z,1003.89
2022-12-12T01:09:20.708Z,1003.97
2022-12-12T01:10:20.697Z,1003.96
2022-12-12T01:11:20.698Z,1003.96
2022-12-12T01:12:20.676Z,1003.96
2022-12-12T01:13:20.664Z,1003.94
2022-12-12T01:14:20.652Z,1003.92
2022-12-12T01:15:20.645Z,1003.93
2022-12-12T01:16:20.700Z,1003.94
2022-12-12T01:17:20.624Z,1003.95
2022-12-12T01:18:20.610Z,1004.00
2022-12-12T01:19:20.603Z,1004.00
2022-12-12T01:20:20.589Z,1003.99
2022-12-12T01:21:20.629Z,1004.00
2022-12-12T01:22:20.570Z,1004.00
2022-12-12T01:23:20.560Z,1003.99
2022-12-12T01:24:20.546Z,1004.00
2022-12-12T01:25:20.539Z,1004.04
2022-12-12T01:26:20.535Z,1004.03
2022-12-12T01:27:20.519Z,1004.03
2022-12-12T01:28:20.505Z,1003.98
2022-12-12T01:29:20.497Z,1004.01
2022-12-12T01:30:20.484Z,1004.03
2022-12-12T01:31:20.540Z,1003.99
2022-12-12T01:32:20.464Z,1004.01
2022-12-12T01:33:20.464Z,1004.02
2022-12-12T01:34:20.440Z,1003.99
2022-12-12T01:35:20.432Z,1004.00
2022-12-12T01:36:20.439Z,1003.97
2022-12-12T01:37:20.494Z,1003.98
2022-12-12T01:38:20.399Z,1003.97
2022-12-12T01:39:20.389Z,1004.03
2022-12-12T01:40:20.387Z,1004.04
2022-12-12T01:41:20.385Z,1004.03
2022-12-12T01:42:20.361Z,1004.04
2022-12-12T01:43:20.347Z,1004.02
2022-12-12T01:44:20.335Z,1004.01
2022-12-12T01:45:20.328Z,1004.07
2022-12-12T01:46:20.375Z,1004.08
2022-12-12T01:47:20.308Z,1004.13
2022-12-12T01:48:20.293Z,1004.09
2022-12-12T01:49:20.284Z,1004.14
2022-12-12T01:50:20.271Z,1004.12
2022-12-12T01:51:20.274Z,1004.08
2022-12-12T01:52:20.253Z,1004.14
2022-12-12T01:53:20.265Z,1004.09
2022-12-12T01:54:20.234Z,1004.11
2022-12-12T01:55:20.222Z,1004.08
2022-12-12T01:56:20.222Z,1004.05
2022-12-12T01:57:20.204Z,1004.05
2022-12-12T01:58:20.189Z,1004.03
2022-12-12T01:59:20.178Z,1004.02
2022-12-12T02:00:20.168Z,1004.07
2022-12-12T02:01:20.170Z,1004.05
2022-12-12T02:02:20.186Z,1004.05
2022-12-12T02:03:20.136Z,1004.04
2022-12-12T02:04:20.124Z,1004.04
2022-12-12T02:05:20.116Z,1003.98
2022-12-12T02:06:20.120Z,1003.97
2022-12-12T02:07:20.093Z,1003.95
2022-12-12T02:08:20.111Z,1003.91
2022-12-12T02:09:20.211Z,1003.94
2022-12-12T02:10:20.061Z,1003.90
2022-12-12T02:11:20.090Z,1003.83
2022-12-12T02:12:20.039Z,1003.81
2022-12-12T02:13:20.029Z,1003.77
2022-12-12T02:14:20.022Z,1003.78
2022-12-12T02:15:20.008Z,1003.79
2022-12-12T02:16:20.022Z,1003.77
2022-12-12T02:17:20.001Z,1003.85
2022-12-12T02:18:19.980Z,1003.86
2022-12-12T02:19:19.965Z,1003.84
2022-12-12T02:20:19.957Z,1003.87
2022-12-12T02:21:19.947Z,1003.88
2022-12-12T02:22:19.946Z,1003.87
2022-12-12T02:23:19.924Z,1003.87
2022-12-12T02:24:25.615Z,1003.91
2022-12-12T02:25:20.928Z,1003.96
2022-12-12T02:26:19.889Z,1003.96
2022-12-12T02:27:19.896Z,1003.95
2022-12-12T02:28:19.870Z,1003.93
2022-12-12T02:29:19.860Z,1003.97
2022-12-12T02:30:19.848Z,1003.93
2022-12-12T02:31:19.917Z,1003.94
2022-12-12T02:32:19.841Z,1003.95
2022-12-12T02:33:19.825Z,1003.97
2022-12-12T02:34:19.805Z,1003.95
2022-12-12T02:35:19.802Z,1003.96
2022-12-12T02:36:19.785Z,1003.97
2022-12-12T02:37:19.784Z,1003.98
2022-12-12T02:38:19.762Z,1004.00
2022-12-12T02:39:19.763Z,1004.04
2022-12-12T02:40:19.740Z,1004.04
2022-12-12T02:41:19.849Z,1004.04
2022-12-12T02:42:19.733Z,1004.04
2022-12-12T02:43:19.720Z,1004.08
2022-12-12T02:44:19.702Z,1004.04
2022-12-12T02:45:19.694Z,1004.07
2022-12-12T02:46:19.700Z,1004.06
2022-12-12T02:47:19.682Z,1004.02
2022-12-12T02:48:19.658Z,1004.09
2022-12-12T02:49:19.650Z,1004.13
2022-12-12T02:50:19.636Z,1004.11
2022-12-12T02:51:19.626Z,1004.09
2022-12-12T02:52:19.625Z,1004.10
2022-12-12T02:53:19.604Z,1004.12
2022-12-12T02:54:19.595Z,1004.13
2022-12-12T02:55:19.586Z,1004.10
2022-12-12T02:56:19.571Z,1004.15
2022-12-12T02:57:19.651Z,1004.11
2022-12-12T02:58:19.551Z,1004.13
2022-12-12T02:59:19.546Z,1004.12
2022-12-12T03:00:19.529Z,1004.12
2022-12-12T03:01:19.522Z,1004.12
2022-12-12T03:02:19.635Z,1004.10
2022-12-12T03:03:19.498Z,1004.09
2022-12-12T03:04:19.487Z,1004.11
2022-12-12T03:05:19.479Z,1004.12
2022-12-12T03:06:19.466Z,1004.07
2022-12-12T03:07:19.471Z,1004.09
2022-12-12T03:08:19.474Z,1004.11
2022-12-12T03:09:19.438Z,1004.10
2022-12-12T03:10:19.423Z,1004.14
2022-12-12T03:11:19.414Z,1004.12
2022-12-12T03:12:19.413Z,1004.16
2022-12-12T03:13:19.414Z,1004.11
2022-12-12T03:14:19.380Z,1004.14
2022-12-12T03:15:19.368Z,1004.11
2022-12-12T03:16:19.470Z,1004.13
2022-12-12T03:17:19.360Z,1004.10
2022-12-12T03:18:19.336Z,1004.14
2022-12-12T03:19:19.328Z,1004.11
2022-12-12T03:20:19.317Z,1004.14
2022-12-12T03:21:19.307Z,1004.06
2022-12-12T03:22:19.304Z,1004.15
2022-12-12T03:23:19.285Z,1004.13
2022-12-12T03:24:19.273Z,1004.16
2022-12-12T03:25:19.263Z,1004.17
2022-12-12T03:26:19.256Z,1004.19
2022-12-12T03:27:19.256Z,1004.22
2022-12-12T03:28:19.231Z,1004.21
2022-12-12T03:29:19.243Z,1004.19
2022-12-12T03:30:19.211Z,1004.22
2022-12-12T03:31:19.219Z,1004.18
2022-12-12T03:32:19.193Z,1004.22
2022-12-12T03:33:19.179Z,1004.20
2022-12-12T03:34:19.168Z,1004.23
2022-12-12T03:35:19.158Z,1004.20
2022-12-12T03:36:19.146Z,1004.15
2022-12-12T03:37:19.154Z,1004.19
2022-12-12T03:38:19.125Z,1004.16
2022-12-12T03:39:19.115Z,1004.19
2022-12-12T03:40:19.104Z,1004.17
2022-12-12T03:41:19.097Z,1004.16
2022-12-12T03:42:19.094Z,1004.16
2022-12-12T03:43:19.071Z,1004.15
2022-12-12T03:44:19.064Z,1004.16
2022-12-12T03:45:19.069Z,1004.16
2022-12-12T03:46:19.039Z,1004.12
2022-12-12T03:47:19.039Z,1004.10
2022-12-12T03:48:19.019Z,1004.13
2022-12-12T03:49:19.007Z,1004.14
2022-12-12T03:50:18.995Z,1004.11
2022-12-12T03:51:18.992Z,1004.10
2022-12-12T03:52:18.983Z,1004.15
2022-12-12T03:53:18.967Z,1004.15
2022-12-12T03:54:18.953Z,1004.18
2022-12-12T03:55:18.946Z,1004.19
2022-12-12T03:56:18.931Z,1004.17
2022-12-12T03:57:18.932Z,1004.19
2022-12-12T03:58:18.909Z,1004.19
2022-12-12T03:59:22.745Z,1004.22
2022-12-12T04:00:19.886Z,1004.24
2022-12-12T04:01:18.971Z,1004.19
2022-12-12T04:02:18.891Z,1004.22
2022-12-12T04:03:18.858Z,1004.17
2022-12-12T04:04:18.846Z,1004.20
2022-12-12T04:05:18.838Z,1004.16
2022-12-12T04:06:18.824Z,1004.19
2022-12-12T04:07:18.827Z,1004.20
2022-12-12T04:08:18.841Z,1004.17
2022-12-12T04:09:18.802Z,1004.16
2022-12-12T04:10:18.780Z,1004.17
2022-12-12T04:11:18.773Z,1004.17
2022-12-12T04:12:18.773Z,1004.16
2022-12-12T04:13:18.751Z,1004.18
2022-12-12T04:14:18.739Z,1004.20
2022-12-12T04:15:18.732Z,1004.20
2022-12-12T04:16:18.756Z,1004.19
2022-12-12T04:17:18.743Z,1004.18
2022-12-12T04:18:18.695Z,1004.20
2022-12-12T04:19:18.686Z,1004.20
2022-12-12T04:20:18.750Z,1004.19
2022-12-12T04:21:18.669Z,1004.18
2022-12-12T04:22:22.230Z,1004.21
2022-12-12T04:23:19.645Z,1004.16
2022-12-12T04:24:18.632Z,1004.15
2022-12-12T04:25:18.625Z,1004.12
2022-12-12T04:26:18.611Z,1004.13
2022-12-12T04:27:18.629Z,1004.13
2022-12-12T04:28:18.593Z,1004.14
2022-12-12T04:29:18.582Z,1004.15
2022-12-12T04:30:18.567Z,1004.09
2022-12-12T04:31:18.592Z,1004.11
2022-12-12T04:32:18.571Z,1004.11
2022-12-12T04:33:18.555Z,1004.13
2022-12-12T04:34:18.527Z,1004.10
2022-12-12T04:35:18.516Z,1004.10
2022-12-12T04:36:18.508Z,1004.07
2022-12-12T04:37:18.528Z,1004.11
2022-12-12T04:38:18.487Z,1004.10
2022-12-12T04:39:18.476Z,1004.12
2022-12-12T04:40:18.464Z,1004.12
2022-12-12T04:41:18.451Z,1004.11
2022-12-12T04:42:18.453Z,1004.12
2022-12-12T04:43:18.452Z,1004.09
2022-12-12T04:44:18.422Z,1004.14
2022-12-12T04:45:18.410Z,1004.09
2022-12-12T04:46:18.482Z,1004.12
2022-12-12T04:47:18.398Z,1004.17
2022-12-12T04:48:18.380Z,1004.14
2022-12-12T04:49:18.454Z,1004.14
2022-12-12T04:50:18.357Z,1004.14
2022-12-12T04:51:18.345Z,1004.13
2022-12-12T04:52:18.347Z,1004.11
2022-12-12T04:53:18.956Z,1004.16
2022-12-12T04:54:18.316Z,1004.13
2022-12-12T04:55:18.306Z,1004.12
2022-12-12T04:56:18.294Z,1004.14
2022-12-12T04:57:18.293Z,1004.16
2022-12-12T04:58:18.270Z,1004.15
2022-12-12T04:59:18.262Z,1004.17
2022-12-12T05:00:18.253Z,1004.16
2022-12-12T05:01:18.290Z,1004.20
2022-12-12T05:02:18.296Z,1004.14
2022-12-12T05:03:18.218Z,1004.16
2022-12-12T05:04:18.208Z,1004.18
2022-12-12T05:05:18.215Z,1004.21
2022-12-12T05:06:18.189Z,1004.17
2022-12-12T05:07:18.212Z,1004.21
2022-12-12T05:08:18.233Z,1004.21
2022-12-12T05:09:18.154Z,1004.17
2022-12-12T05:10:18.144Z,1004.28
2022-12-12T05:11:18.131Z,1004.27
2022-12-12T05:12:18.136Z,1004.26
2022-12-12T05:13:18.118Z,1004.22
2022-12-12T05:14:18.102Z,1004.26
2022-12-12T05:15:18.092Z,1004.31
2022-12-12T05:16:18.172Z,1004.27
2022-12-12T05:17:18.088Z,1004.28
2022-12-12T05:18:18.059Z,1004.30
2022-12-12T05:19:18.054Z,1004.31
2022-12-12T05:20:18.041Z,1004.30
2022-12-12T05:21:18.047Z,1004.32
2022-12-12T05:22:18.021Z,1004.36
2022-12-12T05:23:18.057Z,1004.32
2022-12-12T05:24:17.996Z,1004.30
2022-12-12T05:25:17.985Z,1004.33
2022-12-12T05:26:17.974Z,1004.33
2022-12-12T05:28:09.699Z,1004.38
2022-12-12T05:29:09.682Z,1004.35
2022-12-12T05:30:09.670Z,1004.34
2022-12-12T05:31:09.739Z,1004.33
2022-12-12T05:32:09.650Z,1004.32
2022-12-12T05:33:09.650Z,1004.32
2022-12-12T05:34:09.630Z,1004.29
2022-12-12T05:35:09.631Z,1004.29
2022-12-12T05:36:09.607Z,1004.35
2022-12-12T05:37:09.617Z,1004.32
2022-12-12T05:38:09.617Z,1004.33
2022-12-12T05:39:09.576Z,1004.27
2022-12-12T05:40:09.568Z,1004.33
2022-12-12T05:41:09.552Z,1004.32
2022-12-12T05:42:09.545Z,1004.28
2022-12-12T05:43:09.545Z,1004.28
2022-12-12T05:44:09.524Z,1004.27
2022-12-12T05:45:09.554Z,1004.31
2022-12-12T05:46:09.585Z,1004.30
2022-12-12T05:47:09.522Z,1004.26
2022-12-12T05:48:09.498Z,1004.32
2022-12-12T05:49:09.470Z,1004.35
2022-12-12T05:50:09.484Z,1004.34
2022-12-12T05:51:09.450Z,1004.32
2022-12-12T05:52:09.442Z,1004.33
2022-12-12T05:53:09.462Z,1004.32
2022-12-12T05:54:09.418Z,1004.33
2022-12-12T05:55:09.421Z,1004.32
2022-12-12T05:56:09.401Z,1004.31
2022-12-12T05:57:09.386Z,1004.33
2022-12-12T05:58:09.396Z,1004.29
2022-12-12T05:59:09.374Z,1004.34
2022-12-12T06:00:09.409Z,1004.33
2022-12-12T06:01:09.342Z,1004.35
2022-12-12T06:02:09.402Z,1004.36
2022-12-12T06:03:09.435Z,1004.39
2022-12-12T06:04:09.400Z,1004.38
2022-12-12T06:05:09.300Z,1004.35
2022-12-12T06:06:09.301Z,1004.33
2022-12-12T06:07:09.278Z,1004.38
2022-12-12T06:08:09.314Z,1004.41
2022-12-12T06:09:09.292Z,1004.37
2022-12-12T06:10:09.301Z,1004.38
2022-12-12T06:11:09.245Z,1004.41
2022-12-12T06:12:09.235Z,1004.37
2022-12-12T06:13:09.232Z,1004.39
2022-12-12T06:14:09.209Z,1004.42
2022-12-12T06:15:09.200Z,1004.39
2022-12-12T06:16:09.289Z,1004.44
2022-12-12T06:17:09.179Z,1004.38
2022-12-12T06:18:09.178Z,1004.38
2022-12-12T06:19:09.155Z,1004.42
2022-12-12T06:20:09.150Z,1004.43
2022-12-12T06:21:09.136Z,1004.46
2022-12-12T06:22:09.141Z,1004.41
2022-12-12T06:23:09.121Z,1004.41
2022-12-12T06:24:09.103Z,1004.42
2022-12-12T06:25:09.126Z,1004.46
2022-12-12T06:26:09.081Z,1004.48
2022-12-12T06:27:09.070Z,1004.47
2022-12-12T06:28:09.097Z,1004.49
2022-12-12T06:29:09.054Z,1004.53
2022-12-12T06:30:09.065Z,1004.52
2022-12-12T06:31:11.928Z,1004.53
2022-12-12T06:32:09.019Z,1004.53
2022-12-12T06:33:09.018Z,1004.51
2022-12-12T06:34:09.001Z,1004.58
2022-12-12T06:35:08.991Z,1004.58
2022-12-12T06:36:08.979Z,1004.59
2022-12-12T06:37:11.757Z,1004.62
2022-12-12T06:38:09.966Z,1004.56
2022-12-12T06:39:08.945Z,1004.58
2022-12-12T06:40:08.937Z,1004.59
2022-12-12T06:41:08.942Z,1004.61
2022-12-12T06:42:08.917Z,1004.65
2022-12-12T06:43:08.910Z,1004.65
2022-12-12T06:44:08.893Z,1004.64
2022-12-12T06:45:08.883Z,1004.66
2022-12-12T06:46:08.997Z,1004.64
2022-12-12T06:47:08.858Z,1004.66
2022-12-12T06:48:08.860Z,1004.64
2022-12-12T06:49:08.840Z,1004.67
2022-12-12T06:50:08.829Z,1004.69
2022-12-12T06:51:08.819Z,1004.69
2022-12-12T06:52:08.808Z,1004.69
2022-12-12T06:53:08.810Z,1004.70
2022-12-12T06:54:08.789Z,1004.74
2022-12-12T06:55:08.782Z,1004.71
2022-12-12T06:56:08.766Z,1004.75
2022-12-12T06:57:08.776Z,1004.74
2022-12-12T06:58:08.756Z,1004.75
2022-12-12T06:59:08.734Z,1004.74
2022-12-12T07:00:08.727Z,1004.74
2022-12-12T07:01:08.772Z,1004.76
2022-12-12T07:02:08.707Z,1004.78
2022-12-12T07:03:08.739Z,1004.76
2022-12-12T07:04:08.683Z,1004.77
2022-12-12T07:05:08.675Z,1004.75
2022-12-12T07:06:08.665Z,1004.76
2022-12-12T07:07:08.650Z,1004.77
2022-12-12T07:08:08.737Z,1004.79
2022-12-12T07:09:08.640Z,1004.80
2022-12-12T07:10:08.622Z,1004.82
2022-12-12T07:11:08.614Z,1004.80
2022-12-12T07:12:08.598Z,1004.78
2022-12-12T07:13:08.624Z,1004.78
2022-12-12T07:14:08.579Z,1004.87
2022-12-12T07:15:08.568Z,1004.85
2022-12-12T07:16:08.591Z,1004.80
2022-12-12T07:17:08.549Z,1004.81
2022-12-12T07:18:08.548Z,1004.79
2022-12-12T07:19:08.526Z,1004.86
2022-12-12T07:20:08.516Z,1004.81
2022-12-12T07:21:08.522Z,1004.83
2022-12-12T07:22:10.353Z,1004.89
2022-12-12T07:23:08.496Z,1004.88
2022-12-12T07:24:08.475Z,1004.89
2022-12-12T07:25:08.462Z,1004.88
2022-12-12T07:26:08.453Z,1004.92
2022-12-12T07:27:08.441Z,1004.96
2022-12-12T07:28:08.450Z,1004.93
2022-12-12T07:29:08.447Z,1004.96
2022-12-12T07:30:08.411Z,1004.97
2022-12-12T07:31:08.437Z,1005.00
2022-12-12T07:32:08.411Z,1004.94
2022-12-12T07:33:08.389Z,1004.96
2022-12-12T07:34:08.368Z,1004.93
2022-12-12T07:35:08.362Z,1004.98
2022-12-12T07:36:08.347Z,1005.00
2022-12-12T07:37:08.337Z,1005.02
2022-12-12T07:38:08.343Z,1004.95
2022-12-12T07:39:08.317Z,1004.98
2022-12-12T07:40:08.304Z,1004.97
2022-12-12T07:41:08.292Z,1004.96
2022-12-12T07:42:08.286Z,1004.99
2022-12-12T07:43:08.285Z,1004.97
2022-12-12T07:44:08.265Z,1004.99
2022-12-12T07:45:09.193Z,1004.98
2022-12-12T07:46:08.305Z,1005.06
2022-12-12T07:47:08.230Z,1005.00
2022-12-12T07:48:08.244Z,1005.05
2022-12-12T07:49:08.210Z,1005.03
2022-12-12T07:50:08.202Z,1005.06
2022-12-12T07:51:08.198Z,1005.09
2022-12-12T07:52:08.181Z,1005.08
2022-12-12T07:53:08.178Z,1005.07
2022-12-12T07:54:08.156Z,1005.08
2022-12-12T07:55:08.149Z,1005.10
2022-12-12T07:56:08.133Z,1005.12
2022-12-12T07:57:08.136Z,1005.12
2022-12-12T07:58:08.131Z,1005.08
2022-12-12T07:59:08.110Z,1005.17
2022-12-12T08:00:08.095Z,1005.13
2022-12-12T08:01:12.650Z,1005.21
2022-12-12T08:02:09.098Z,1005.21
2022-12-12T08:03:08.075Z,1005.15
2022-12-12T08:04:08.052Z,1005.20
2022-12-12T08:05:08.087Z,1005.22
2022-12-12T08:06:08.031Z,1005.24
2022-12-12T08:07:08.756Z,1005.23
2022-12-12T08:08:08.067Z,1005.21
2022-12-12T08:09:07.999Z,1005.24
2022-12-12T08:10:07.989Z,1005.28
2022-12-12T08:11:07.997Z,1005.30
2022-12-12T08:12:07.972Z,1005.31
2022-12-12T08:13:07.967Z,1005.30
2022-12-12T08:14:12.691Z,1005.31
2022-12-12T08:15:08.935Z,1005.34
2022-12-12T08:16:08.041Z,1005.36
2022-12-12T08:17:07.954Z,1005.39
2022-12-12T08:18:07.918Z,1005.39
2022-12-12T08:19:07.896Z,1005.40
2022-12-12T08:20:07.883Z,1005.41
2022-12-12T08:21:07.877Z,1005.43
2022-12-12T08:22:07.865Z,1005.45
2022-12-12T08:23:07.886Z,1005.45
2022-12-12T08:24:07.842Z,1005.41
2022-12-12T08:25:07.834Z,1005.43
2022-12-12T08:26:07.822Z,1005.44
2022-12-12T08:27:13.769Z,1005.47
2022-12-12T08:28:08.811Z,1005.43
2022-12-12T08:29:07.793Z,1005.43
2022-12-12T08:30:07.782Z,1005.42
2022-12-12T08:31:07.785Z,1005.49
2022-12-12T08:32:07.758Z,1005.51
2022-12-12T08:33:08.266Z,1005.50
2022-12-12T08:34:07.761Z,1005.45
2022-12-12T08:35:07.729Z,1005.49
2022-12-12T08:36:07.717Z,1005.51
2022-12-12T08:37:07.710Z,1005.49
2022-12-12T08:38:07.695Z,1005.49
2022-12-12T08:39:07.695Z,1005.54
2022-12-12T08:40:07.673Z,1005.48
2022-12-12T08:41:07.667Z,1005.53
2022-12-12T08:42:07.704Z,1005.55
2022-12-12T08:43:07.645Z,1005.55
2022-12-12T08:44:07.650Z,1005.59
2022-12-12T08:45:07.623Z,1005.55
2022-12-12T08:46:11.033Z,1005.59
2022-12-12T08:47:08.634Z,1005.61
2022-12-12T08:48:07.589Z,1005.61
2022-12-12T08:49:07.613Z,1005.56
2022-12-12T08:50:07.568Z,1005.58
2022-12-12T08:51:07.619Z,1005.61
2022-12-12T08:52:07.565Z,1005.59
2022-12-12T08:53:07.542Z,1005.66
2022-12-12T08:54:07.540Z,1005.62
2022-12-12T08:55:07.544Z,1005.64
2022-12-12T08:56:07.516Z,1005.67
2022-12-12T08:57:07.499Z,1005.70
2022-12-12T08:58:07.484Z,1005.72
2022-12-12T08:59:07.491Z,1005.72
2022-12-12T09:00:07.489Z,1005.73
2022-12-12T09:01:07.484Z,1005.73
2022-12-12T09:02:07.573Z,1005.75
2022-12-12T09:03:07.506Z,1005.74
2022-12-12T09:04:07.477Z,1005.77
2022-12-12T09:05:07.432Z,1005.78
2022-12-12T09:06:07.401Z,1005.78
2022-12-12T09:07:08.791Z,1005.83
2022-12-12T09:08:07.408Z,1005.77
2022-12-12T09:09:07.382Z,1005.79
2022-12-12T09:10:07.362Z,1005.84
2022-12-12T09:11:07.449Z,1005.85
2022-12-12T09:12:07.339Z,1005.91
2022-12-12T09:13:07.340Z,1005.82
2022-12-12T09:14:07.329Z,1005.85
2022-12-12T09:15:07.310Z,1005.90
2022-12-12T09:16:07.379Z,1005.84
2022-12-12T09:17:07.288Z,1005.84
2022-12-12T09:18:07.279Z,1005.88
2022-12-12T09:19:07.290Z,1005.90
2022-12-12T09:20:07.266Z,1005.92
2022-12-12T09:21:07.270Z,1005.96
2022-12-12T09:22:07.236Z,1005.98
2022-12-12T09:23:07.224Z,1006.01
2022-12-12T09:24:07.223Z,1006.01
2022-12-12T09:25:07.207Z,1005.97
2022-12-12T09:26:07.192Z,1005.95
2022-12-12T09:27:07.184Z,1005.96
2022-12-12T09:28:07.172Z,1005.99
2022-12-12T09:29:07.173Z,1005.98
2022-12-12T09:30:07.150Z,1005.99
2022-12-12T09:31:07.253Z,1006.03
2022-12-12T09:32:07.132Z,1005.99
2022-12-12T09:33:07.152Z,1005.93
2022-12-12T09:34:07.124Z,1006.03
2022-12-12T09:35:07.098Z,1005.95
2022-12-12T09:36:07.088Z,1005.98
2022-12-12T09:37:07.096Z,1005.97
2022-12-12T09:38:10.943Z,1005.98
2022-12-12T09:39:08.066Z,1006.01
2022-12-12T09:40:07.046Z,1005.97
2022-12-12T09:41:07.036Z,1005.97
2022-12-12T09:42:07.023Z,1005.96
2022-12-12T09:43:07.017Z,1005.94
2022-12-12T09:44:07.016Z,1005.96
2022-12-12T09:45:06.994Z,1005.94
2022-12-12T09:46:07.028Z,1005.94
2022-12-12T09:47:06.972Z,1005.98
2022-12-12T09:48:06.962Z,1005.96
2022-12-12T09:49:06.994Z,1005.94
2022-12-12T09:50:06.943Z,1005.93
2022-12-12T09:51:06.929Z,1005.98
2022-12-12T09:52:06.916Z,1005.93
2022-12-12T09:53:06.931Z,1005.91
2022-12-12T09:54:06.911Z,1005.94
2022-12-12T09:55:06.887Z,1005.92
2022-12-12T09:56:06.876Z,1005.88
2022-12-12T09:57:06.865Z,1005.90
2022-12-12T09:58:06.852Z,1005.91
2022-12-12T09:59:06.856Z,1005.85
2022-12-12T10:00:06.835Z,1005.85
2022-12-12T10:01:06.904Z,1005.87
2022-12-12T10:02:06.890Z,1005.88
2022-12-12T10:03:06.801Z,1005.91
2022-12-12T10:04:06.805Z,1005.86
2022-12-12T10:05:06.779Z,1005.85
2022-12-12T10:06:35.975Z,1005.88
2022-12-12T10:07:07.758Z,1005.84
2022-12-12T10:08:06.799Z,1005.86
2022-12-12T10:09:06.772Z,1005.94
2022-12-12T10:10:06.726Z,1005.88
2022-12-12T10:11:06.730Z,1005.91
2022-12-12T10:12:08.575Z,1005.83
2022-12-12T10:13:06.697Z,1005.93
2022-12-12T10:14:06.696Z,1005.89
2022-12-12T10:15:06.674Z,1005.91
2022-12-12T10:16:06.726Z,1005.88
2022-12-12T10:17:06.655Z,1005.94
2022-12-12T10:18:06.639Z,1005.88
2022-12-12T10:19:06.639Z,1005.91
2022-12-12T10:20:06.616Z,1005.89
2022-12-12T10:21:06.608Z,1005.85
2022-12-12T10:22:06.600Z,1005.86
2022-12-12T10:23:06.586Z,1005.83
2022-12-12T10:24:06.584Z,1005.90
2022-12-12T10:25:06.581Z,1005.89
2022-12-12T10:26:06.552Z,1005.91
2022-12-12T10:27:06.542Z,1005.90
2022-12-12T10:28:06.530Z,1005.88
2022-12-12T10:29:06.532Z,1005.90
2022-12-12T10:30:06.510Z,1005.85
2022-12-12T10:31:06.500Z,1005.91
2022-12-12T10:32:06.518Z,1005.86
2022-12-12T10:33:06.479Z,1005.90
2022-12-12T10:34:06.506Z,1005.90
2022-12-12T10:35:11.213Z,1005.94
2022-12-12T10:36:07.441Z,1005.94
2022-12-12T10:37:06.433Z,1005.99
2022-12-12T10:38:06.421Z,1005.96
2022-12-12T10:39:06.421Z,1005.93
2022-12-12T10:40:06.401Z,1005.93
2022-12-12T10:41:06.426Z,1005.95
2022-12-12T10:42:06.381Z,1005.98
2022-12-12T10:43:06.372Z,1005.94
2022-12-12T10:44:06.367Z,1005.99
2022-12-12T10:45:06.347Z,1006.03
2022-12-12T10:46:06.495Z,1005.97
2022-12-12T10:47:06.439Z,1005.98
2022-12-12T10:48:06.317Z,1006.01
2022-12-12T10:49:06.360Z,1005.99
2022-12-12T10:50:11.503Z,1005.97
2022-12-12T10:51:07.292Z,1006.01
2022-12-12T10:52:06.273Z,1006.01
2022-12-12T10:53:06.272Z,1005.98
2022-12-12T10:54:06.266Z,1005.93
2022-12-12T10:55:06.242Z,1005.95
2022-12-12T10:56:06.228Z,1005.96
2022-12-12T10:57:06.239Z,1005.98
2022-12-12T10:58:06.224Z,1005.96
2022-12-12T10:59:06.226Z,1005.97
2022-12-12T11:00:06.198Z,1005.98
2022-12-12T11:01:06.214Z,1005.93
2022-12-12T11:02:10.600Z,1005.97
2022-12-12T11:03:06.287Z,1005.95
2022-12-12T11:04:06.162Z,1005.98
2022-12-12T11:05:06.134Z,1005.95
2022-12-12T11:06:06.123Z,1005.97
2022-12-12T11:07:06.112Z,1005.97
2022-12-12T11:08:06.159Z,1006.00
2022-12-12T11:09:06.131Z,1005.95
2022-12-12T11:10:06.079Z,1005.96
2022-12-12T11:11:06.070Z,1005.95
2022-12-12T11:12:06.070Z,1005.96
2022-12-12T11:13:06.083Z,1005.93
2022-12-12T11:14:06.053Z,1005.92
2022-12-12T11:15:06.025Z,1005.88
2022-12-12T11:16:11.578Z,1005.99
2022-12-12T11:17:07.095Z,1006.03
2022-12-12T11:18:06.617Z,1005.95
2022-12-12T11:19:05.994Z,1005.98
2022-12-12T11:20:05.975Z,1006.02
2022-12-12T11:21:05.965Z,1005.98
2022-12-12T11:22:05.955Z,1006.04
2022-12-12T11:23:05.941Z,1006.02
2022-12-12T11:24:05.947Z,1006.04
2022-12-12T11:25:05.920Z,1006.03
2022-12-12T11:26:05.913Z,1006.00
2022-12-12T11:27:05.900Z,1005.96
2022-12-12T11:28:13.852Z,1005.95
2022-12-12T11:29:05.891Z,1005.92
2022-12-12T11:30:05.866Z,1005.94
2022-12-12T11:31:05.857Z,1005.98
2022-12-12T11:32:05.897Z,1005.93
2022-12-12T11:33:05.840Z,1005.92
2022-12-12T11:34:05.832Z,1005.92
2022-12-12T11:35:05.815Z,1005.93
2022-12-12T11:36:05.801Z,1005.96
2022-12-12T11:37:05.791Z,1005.95
2022-12-12T11:38:05.778Z,1005.96
2022-12-12T11:39:05.784Z,1005.97
2022-12-12T11:40:05.759Z,1005.98
2022-12-12T11:41:05.758Z,1005.97
2022-12-12T11:42:05.737Z,1006.02
2022-12-12T11:43:05.728Z,1005.97
2022-12-12T11:44:05.748Z,1006.01
2022-12-12T11:45:05.716Z,1006.00
2022-12-12T11:46:05.733Z,1006.04
2022-12-12T11:47:05.686Z,1005.98
2022-12-12T11:48:05.674Z,1005.94
2022-12-12T11:49:05.690Z,1005.98
2022-12-12T11:50:10.783Z,1006.01
2022-12-12T11:51:06.641Z,1006.00
2022-12-12T11:52:05.640Z,1006.05
2022-12-12T11:53:05.624Z,1006.05
2022-12-12T11:54:05.621Z,1006.04
2022-12-12T11:55:05.600Z,1006.02
2022-12-12T11:56:05.587Z,1006.09
2022-12-12T11:57:05.578Z,1006.03
2022-12-12T11:58:05.569Z,1006.02
2022-12-12T11:59:05.587Z,1006.08
2022-12-12T12:00:05.568Z,1006.09
2022-12-12T12:01:05.535Z,1006.09
2022-12-12T12:02:05.524Z,1006.17
2022-12-12T12:03:05.557Z,1006.16
2022-12-12T12:04:05.621Z,1006.15
2022-12-12T12:05:05.501Z,1006.10
2022-12-12T12:06:05.481Z,1006.18